Waswanipi, Canada
Current Conditions -  °F | °C
As of 1:39 PM on Monday 26 Jan 2015 (Local Time) from CYNM Reporting Station
Clear Clear  
Wind Chill: -8°   Ceiling: Unl
Heat Index:   Visibility: 9mi
Dew Point: -6°   Wind: 5mph
Humidity: 72%   Direction: 150°SSE
Pressure: 30.09"   Gusts: NA
Location:  49.65°N, 76.48°W
Report Text: CYNM 261839Z AUTO 15004KT 9SM CLR M17/M21 A3009 RMK ICG PAST HR SLP224
Loading
Personal Weather Stations






























Interactive Weather Map New forecast layout! Learn more

10-Day Weather Forecast

Advertisements
Track Severe Weather on mobile